Current Weather Conditions: station 44139

sailwx.info

Wind from 280 at 17 knots gusting 21

Wave height 3.0 meters (9 feet), 12 second period

Air temperature -2.8° C
Water temperature 2.1° C

Last reported at 2015-Feb-27 22:00 UTC.
Time now 2015-Feb-27 22:43 UTC

Location: N 44°12' W 057°06'.
View on Google Maps.

See reports from other nearby stations

  
Tides and Currents Weather Stations Pressure Air Temp Water Temp Dewpoint Dewpoint Depression Visibility Wind Speed Wind Dir Waves Ship Positions
date/time (UTC)wind fromknots sea level pressurealtimeterstation pressurevisibilityair tempwater tempwave heightnotes
2015-Feb-27 22:00 280 17 gusting 21 -2.8 2.1 3.0
2015-Feb-27 21:00 280 17 gusting 21 -2.8 2.1 2.9
2015-Feb-27 20:00 270 15 gusting 21 -2.9 2.1 3.5
2015-Feb-27 19:00 280 15 gusting 19 -2.7 2.3 3.5
2015-Feb-27 18:00 280 15 gusting 19 -2.3 2.8 3.4
2015-Feb-27 17:00 290 17 gusting 21 -2.6 3.1 3.3
2015-Feb-27 16:00 310 15 gusting 19 -2.5 3.2 3.5
2015-Feb-27 15:00 310 15 gusting 19 -2.0 3.3 3.1
2015-Feb-27 14:00 320 15 gusting 19 -1.7 3.2 2.8
2015-Feb-27 13:00 330 15 gusting 19 -1.3 3.2 2.6
2015-Feb-27 12:00 330 15 gusting 19 -0.8 3.2 2.6
2015-Feb-27 11:00 350 15 gusting 17 -0.6 3.0 2.3
2015-Feb-27 10:00 350 15 gusting 19 -0.5 2.9 2.2
2015-Feb-27 09:00 -0.3 2.8 2.3
2015-Feb-27 08:00 010 15 gusting 19 -0.4 2.7 2.5
2015-Feb-27 07:00 020 17 gusting 21 -0.4 2.6 2.6
2015-Feb-27 06:00 020 19 gusting 23 -0.2 2.6 2.6
2015-Feb-27 05:00 020 19 gusting 23 -0.1 2.6 2.5
2015-Feb-27 04:00 040 19 gusting 21 -0.2 2.6 2.6
2015-Feb-27 03:00 040 17 gusting 23 -0.1 2.7 2.3
2015-Feb-27 02:00 020 15 gusting 19 -0.4 2.8 2.8
2015-Feb-27 01:00 010 11 gusting 15 -0.5 3.0 2.9
2015-Feb-27 00:00 010 7 gusting 9 -0.5 3.2 3.3
2015-Feb-26 23:00 280 1 gusting 3 -0.5 3.4 3.1
2015-Feb-26 22:00 210 3 gusting 5 1.5 3.4 3.4
2015-Feb-26 21:00 250 3 gusting 7 1.2 3.3 3.4
2015-Feb-26 20:00 250 11 gusting 13 1.2 3.3 3.5
2015-Feb-26 19:00 250 15 gusting 19 1.2 3.2 3.6
2015-Feb-26 18:00 250 15 gusting 19 0.9 3.2 3.8
2015-Feb-26 17:00 250 19 gusting 23 0.5 3.1 3.8
2015-Feb-26 16:00 260 19 gusting 23 0.2 3.1 4.0
2015-Feb-26 15:00 260 21 gusting 31 -0.1 3.1 4.2
2015-Feb-26 13:00 270 23 gusting 29 -0.5 3.1 4.3
2015-Feb-26 12:00 280 23 gusting 29 -0.4 3.1 5.0
2015-Feb-26 11:00 290 25 gusting 33 -0.1 3.2 5.0
2015-Feb-26 10:00 280 27 0.3 3.3
2015-Feb-26 09:00 280 25 gusting 31 0.2 3.3 4.7
2015-Feb-26 08:00 280 27 0.4
2015-Feb-26 07:00 270 29 gusting 34 1.5 3.1 4.5
2015-Feb-26 06:00 260 25 gusting 33 2.2 3.0 4.6
2015-Feb-26 05:00 260 23 gusting 29 2.9 3.0 5.1
2015-Feb-26 04:00 250 23 gusting 31 3.6 3.0 6.0
2015-Feb-26 03:00 170 21 gusting 27 7.8 2.9 6.3
2015-Feb-26 02:00 150 31 gusting 40 8.8 2.9 6.1
2015-Feb-26 01:00 140 29 8.3
2015-Feb-26 00:00 120 27 gusting 34 6.8 3.1 4.8
2015-Feb-25 23:00 110 33 gusting 40 4.8 3.2 4.5
2015-Feb-25 22:00 110 36 gusting 44 4.0 3.2 4.3